sensor_id;sensor_type;location;lat;lon;timestamp;temperature;humidity
47350;DHT22;33088;51.982;5.872;2023-02-15T00:01:44;4.30;99.90
47350;DHT22;33088;51.982;5.872;2023-02-15T00:04:13;4.20;99.90
47350;DHT22;33088;51.982;5.872;2023-02-15T00:06:40;4.20;99.90
47350;DHT22;33088;51.982;5.872;2023-02-15T00:09:05;4.20;99.90
47350;DHT22;33088;51.982;5.872;2023-02-15T00:11:31;4.20;99.90
47350;DHT22;33088;51.982;5.872;2023-02-15T00:14:07;4.20;99.90
47350;DHT22;33088;51.982;5.872;2023-02-15T00:16:34;4.20;99.90
47350;DHT22;33088;51.982;5.872;2023-02-15T00:19:00;4.10;99.90
47350;DHT22;33088;51.982;5.872;2023-02-15T00:21:28;4.00;99.90
47350;DHT22;33088;51.982;5.872;2023-02-15T00:23:55;3.90;99.90
47350;DHT22;33088;51.982;5.872;2023-02-15T00:26:21;3.90;99.90
47350;DHT22;33088;51.982;5.872;2023-02-15T00:28:47;3.90;99.90
47350;DHT22;33088;51.982;5.872;2023-02-15T00:31:13;3.90;99.90
47350;DHT22;33088;51.982;5.872;2023-02-15T00:33:39;3.90;99.90
47350;DHT22;33088;51.982;5.872;2023-02-15T00:36:08;3.90;99.90
47350;DHT22;33088;51.982;5.872;2023-02-15T00:38:34;4.00;99.90
47350;DHT22;33088;51.982;5.872;2023-02-15T00:41:03;3.80;99.90
47350;DHT22;33088;51.982;5.872;2023-02-15T00:43:30;3.80;99.90
47350;DHT22;33088;51.982;5.872;2023-02-15T00:45:56;3.80;99.90
47350;DHT22;33088;51.982;5.872;2023-02-15T00:48:23;3.80;99.90
47350;DHT22;33088;51.982;5.872;2023-02-15T00:50:53;3.90;99.90
47350;DHT22;33088;51.982;5.872;2023-02-15T00:53:20;3.80;99.90
47350;DHT22;33088;51.982;5.872;2023-02-15T00:55:46;3.60;99.90
47350;DHT22;33088;51.982;5.872;2023-02-15T00:58:13;3.60;99.90
47350;DHT22;33088;51.982;5.872;2023-02-15T01:00:40;3.60;99.90
47350;DHT22;33088;51.982;5.872;2023-02-15T01:03:06;3.60;99.90
47350;DHT22;33088;51.982;5.872;2023-02-15T01:05:32;3.60;99.90
47350;DHT22;33088;51.982;5.872;2023-02-15T01:07:59;3.60;99.90
47350;DHT22;33088;51.982;5.872;2023-02-15T01:10:25;3.60;99.90
47350;DHT22;33088;51.982;5.872;2023-02-15T01:12:51;3.70;99.90
47350;DHT22;33088;51.982;5.872;2023-02-15T01:15:17;3.70;99.90
47350;DHT22;33088;51.982;5.872;2023-02-15T01:17:43;3.70;99.90
47350;DHT22;33088;51.982;5.872;2023-02-15T01:20:15;3.60;99.90
47350;DHT22;33088;51.982;5.872;2023-02-15T01:22:40;3.60;99.90
47350;DHT22;33088;51.982;5.872;2023-02-15T01:25:06;3.60;99.90
47350;DHT22;33088;51.982;5.872;2023-02-15T01:27:32;3.60;99.90
47350;DHT22;33088;51.982;5.872;2023-02-15T01:29:57;3.50;99.90
47350;DHT22;33088;51.982;5.872;2023-02-15T01:32:23;3.50;99.90
47350;DHT22;33088;51.982;5.872;2023-02-15T01:34:49;3.50;99.90
47350;DHT22;33088;51.982;5.872;2023-02-15T01:37:15;3.50;99.90
47350;DHT22;33088;51.982;5.872;2023-02-15T01:39:41;3.50;99.90
47350;DHT22;33088;51.982;5.872;2023-02-15T01:42:10;3.30;99.90
47350;DHT22;33088;51.982;5.872;2023-02-15T01:44:47;3.30;99.90
47350;DHT22;33088;51.982;5.872;2023-02-15T01:47:19;3.30;99.90
47350;DHT22;33088;51.982;5.872;2023-02-15T01:49:46;3.20;99.90
47350;DHT22;33088;51.982;5.872;2023-02-15T01:52:16;3.20;99.90
47350;DHT22;33088;51.982;5.872;2023-02-15T01:54:45;3.20;99.90
47350;DHT22;33088;51.982;5.872;2023-02-15T01:57:17;3.20;99.90
47350;DHT22;33088;51.982;5.872;2023-02-15T01:59:46;3.10;99.90
47350;DHT22;33088;51.982;5.872;2023-02-15T02:02:16;3.20;99.90
47350;DHT22;33088;51.982;5.872;2023-02-15T02:04:48;3.10;99.90
47350;DHT22;33088;51.982;5.872;2023-02-15T02:07:20;3.10;99.90
47350;DHT22;33088;51.982;5.872;2023-02-15T02:09:47;3.00;99.90
47350;DHT22;33088;51.982;5.872;2023-02-15T02:12:15;3.00;99.90
47350;DHT22;33088;51.982;5.872;2023-02-15T02:14:42;3.00;99.90
47350;DHT22;33088;51.982;5.872;2023-02-15T02:26:11;2.80;99.90
47350;DHT22;33088;51.982;5.872;2023-02-15T02:34:29;2.60;99.90
47350;DHT22;33088;51.982;5.872;2023-02-15T02:37:33;2.70;99.90
47350;DHT22;33088;51.982;5.872;2023-02-15T02:40:18;2.70;99.90
47350;DHT22;33088;51.982;5.872;2023-02-15T02:43:00;2.80;99.90
47350;DHT22;33088;51.982;5.872;2023-02-15T02:45:39;2.70;99.90
47350;DHT22;33088;51.982;5.872;2023-02-15T02:48:13;2.60;99.90
47350;DHT22;33088;51.982;5.872;2023-02-15T02:50:41;2.60;99.90
47350;DHT22;33088;51.982;5.872;2023-02-15T02:53:08;2.50;99.90
47350;DHT22;33088;51.982;5.872;2023-02-15T02:55:58;2.50;99.90
47350;DHT22;33088;51.982;5.872;2023-02-15T02:58:43;2.50;99.90
47350;DHT22;33088;51.982;5.872;2023-02-15T03:01:19;2.50;99.90
47350;DHT22;33088;51.982;5.872;2023-02-15T03:03:53;2.60;99.90
47350;DHT22;33088;51.982;5.872;2023-02-15T03:06:35;2.60;99.90
47350;DHT22;33088;51.982;5.872;2023-02-15T03:09:15;2.60;99.90
47350;DHT22;33088;51.982;5.872;2023-02-15T03:11:45;2.60;99.90
47350;DHT22;33088;51.982;5.872;2023-02-15T03:14:14;2.50;99.90
47350;DHT22;33088;51.982;5.872;2023-02-15T03:16:41;2.50;99.90
47350;DHT22;33088;51.982;5.872;2023-02-15T03:19:14;2.50;99.90
47350;DHT22;33088;51.982;5.872;2023-02-15T03:21:49;2.50;99.90
47350;DHT22;33088;51.982;5.872;2023-02-15T03:24:24;2.40;99.90
47350;DHT22;33088;51.982;5.872;2023-02-15T03:26:53;2.40;99.90
47350;DHT22;33088;51.982;5.872;2023-02-15T03:29:22;2.40;99.90
47350;DHT22;33088;51.982;5.872;2023-02-15T03:31:53;2.50;99.90
47350;DHT22;33088;51.982;5.872;2023-02-15T03:34:20;2.50;99.90
47350;DHT22;33088;51.982;5.872;2023-02-15T03:36:54;2.50;99.90
47350;DHT22;33088;51.982;5.872;2023-02-15T03:39:31;2.50;99.90
47350;DHT22;33088;51.982;5.872;2023-02-15T03:42:10;2.50;99.90
47350;DHT22;33088;51.982;5.872;2023-02-15T03:45:00;2.50;99.90
47350;DHT22;33088;51.982;5.872;2023-02-15T03:47:32;2.50;99.90
47350;DHT22;33088;51.982;5.872;2023-02-15T03:50:15;2.50;99.90
47350;DHT22;33088;51.982;5.872;2023-02-15T03:53:06;2.50;99.90
47350;DHT22;33088;51.982;5.872;2023-02-15T03:55:33;2.40;99.90
47350;DHT22;33088;51.982;5.872;2023-02-15T03:58:02;2.40;99.90
47350;DHT22;33088;51.982;5.872;2023-02-15T04:01:30;2.30;99.90
47350;DHT22;33088;51.982;5.872;2023-02-15T04:04:21;2.30;99.90
47350;DHT22;33088;51.982;5.872;2023-02-15T04:06:47;2.30;99.90
47350;DHT22;33088;51.982;5.872;2023-02-15T04:09:13;2.20;99.90
47350;DHT22;33088;51.982;5.872;2023-02-15T04:11:58;2.20;99.90
47350;DHT22;33088;51.982;5.872;2023-02-15T04:14:23;2.20;99.90
47350;DHT22;33088;51.982;5.872;2023-02-15T04:17:08;2.20;99.90
47350;DHT22;33088;51.982;5.872;2023-02-15T04:19:34;2.20;99.90
47350;DHT22;33088;51.982;5.872;2023-02-15T04:22:18;2.20;99.90
47350;DHT22;33088;51.982;5.872;2023-02-15T04:25:03;2.10;99.90
47350;DHT22;33088;51.982;5.872;2023-02-15T04:27:36;2.10;99.90
47350;DHT22;33088;51.982;5.872;2023-02-15T04:30:03;2.10;99.90
47350;DHT22;33088;51.982;5.872;2023-02-15T04:32:28;2.30;99.90
47350;DHT22;33088;51.982;5.872;2023-02-15T04:34:54;2.10;99.90
47350;DHT22;33088;51.982;5.872;2023-02-15T04:37:20;2.10;99.90
47350;DHT22;33088;51.982;5.872;2023-02-15T04:39:45;2.00;99.90
47350;DHT22;33088;51.982;5.872;2023-02-15T04:42:11;2.00;99.90
47350;DHT22;33088;51.982;5.872;2023-02-15T04:44:36;2.00;99.90
47350;DHT22;33088;51.982;5.872;2023-02-15T04:47:02;2.00;99.90
47350;DHT22;33088;51.982;5.872;2023-02-15T04:49:28;2.00;99.90
47350;DHT22;33088;51.982;5.872;2023-02-15T04:51:53;1.90;99.90
47350;DHT22;33088;51.982;5.872;2023-02-15T04:54:19;1.90;99.90
47350;DHT22;33088;51.982;5.872;2023-02-15T04:56:44;1.80;99.90
47350;DHT22;33088;51.982;5.872;2023-02-15T04:59:11;1.80;99.90
47350;DHT22;33088;51.982;5.872;2023-02-15T05:01:37;1.80;99.90
47350;DHT22;33088;51.982;5.872;2023-02-15T05:04:02;1.80;99.90
47350;DHT22;33088;51.982;5.872;2023-02-15T05:06:28;1.70;99.90
47350;DHT22;33088;51.982;5.872;2023-02-15T05:08:54;1.70;99.90
47350;DHT22;33088;51.982;5.872;2023-02-15T05:11:20;1.60;99.90
47350;DHT22;33088;51.982;5.872;2023-02-15T05:13:46;1.60;99.90
47350;DHT22;33088;51.982;5.872;2023-02-15T05:16:11;1.60;99.90
47350;DHT22;33088;51.982;5.872;2023-02-15T05:18:37;1.50;99.90
47350;DHT22;33088;51.982;5.872;2023-02-15T05:21:03;1.60;99.90
47350;DHT22;33088;51.982;5.872;2023-02-15T05:23:29;1.60;99.90
47350;DHT22;33088;51.982;5.872;2023-02-15T05:25:54;1.60;99.90
47350;DHT22;33088;51.982;5.872;2023-02-15T05:28:39;1.70;99.90
47350;DHT22;33088;51.982;5.872;2023-02-15T05:31:14;1.60;99.90
47350;DHT22;33088;51.982;5.872;2023-02-15T05:33:40;1.70;99.90
47350;DHT22;33088;51.982;5.872;2023-02-15T05:36:06;1.70;99.90
47350;DHT22;33088;51.982;5.872;2023-02-15T05:38:32;1.70;99.90
47350;DHT22;33088;51.982;5.872;2023-02-15T05:40:58;1.70;99.90
47350;DHT22;33088;51.982;5.872;2023-02-15T05:43:24;1.70;99.90
47350;DHT22;33088;51.982;5.872;2023-02-15T05:45:54;1.70;99.90
47350;DHT22;33088;51.982;5.872;2023-02-15T05:48:23;1.70;99.90
47350;DHT22;33088;51.982;5.872;2023-02-15T05:50:59;1.70;99.90
47350;DHT22;33088;51.982;5.872;2023-02-15T05:53:26;1.70;99.90
47350;DHT22;33088;51.982;5.872;2023-02-15T05:55:51;1.50;99.90
47350;DHT22;33088;51.982;5.872;2023-02-15T05:58:17;1.50;99.90
47350;DHT22;33088;51.982;5.872;2023-02-15T06:00:43;1.50;99.90
47350;DHT22;33088;51.982;5.872;2023-02-15T06:03:08;1.50;99.90
47350;DHT22;33088;51.982;5.872;2023-02-15T06:05:34;1.50;99.90
47350;DHT22;33088;51.982;5.872;2023-02-15T06:08:00;1.50;99.90
47350;DHT22;33088;51.982;5.872;2023-02-15T06:10:25;1.50;99.90
47350;DHT22;33088;51.982;5.872;2023-02-15T06:12:51;1.40;99.90
47350;DHT22;33088;51.982;5.872;2023-02-15T06:15:17;1.50;99.90
47350;DHT22;33088;51.982;5.872;2023-02-15T06:17:42;1.50;99.90
47350;DHT22;33088;51.982;5.872;2023-02-15T06:20:09;1.50;99.90
47350;DHT22;33088;51.982;5.872;2023-02-15T06:22:34;1.50;99.90
47350;DHT22;33088;51.982;5.872;2023-02-15T06:25:00;1.50;99.90
47350;DHT22;33088;51.982;5.872;2023-02-15T06:27:26;1.40;99.90
47350;DHT22;33088;51.982;5.872;2023-02-15T06:29:52;1.40;99.90
47350;DHT22;33088;51.982;5.872;2023-02-15T06:32:17;1.30;99.90
47350;DHT22;33088;51.982;5.872;2023-02-15T06:34:45;1.30;99.90
47350;DHT22;33088;51.982;5.872;2023-02-15T06:37:11;1.30;99.90
47350;DHT22;33088;51.982;5.872;2023-02-15T06:39:40;1.30;99.90
47350;DHT22;33088;51.982;5.872;2023-02-15T06:42:06;1.30;99.90
47350;DHT22;33088;51.982;5.872;2023-02-15T06:44:31;1.30;99.90
47350;DHT22;33088;51.982;5.872;2023-02-15T06:46:57;1.30;99.90
47350;DHT22;33088;51.982;5.872;2023-02-15T06:49:22;1.30;99.90
47350;DHT22;33088;51.982;5.872;2023-02-15T06:51:48;1.30;99.90
47350;DHT22;33088;51.982;5.872;2023-02-15T06:54:14;1.30;99.90
47350;DHT22;33088;51.982;5.872;2023-02-15T06:56:39;1.30;99.90
47350;DHT22;33088;51.982;5.872;2023-02-15T06:59:05;1.30;99.90
47350;DHT22;33088;51.982;5.872;2023-02-15T07:01:31;1.30;99.90
47350;DHT22;33088;51.982;5.872;2023-02-15T07:03:56;1.40;99.90
47350;DHT22;33088;51.982;5.872;2023-02-15T07:06:22;1.40;99.90
47350;DHT22;33088;51.982;5.872;2023-02-15T07:08:48;1.40;99.90
47350;DHT22;33088;51.982;5.872;2023-02-15T07:11:13;1.40;99.90
47350;DHT22;33088;51.982;5.872;2023-02-15T07:14:03;1.40;99.90
47350;DHT22;33088;51.982;5.872;2023-02-15T07:16:28;1.40;99.90
47350;DHT22;33088;51.982;5.872;2023-02-15T07:18:54;1.50;99.90
47350;DHT22;33088;51.982;5.872;2023-02-15T07:21:20;1.40;99.90
47350;DHT22;33088;51.982;5.872;2023-02-15T07:23:45;1.50;99.90
47350;DHT22;33088;51.982;5.872;2023-02-15T07:26:11;1.50;99.90
47350;DHT22;33088;51.982;5.872;2023-02-15T07:28:37;1.50;99.90
47350;DHT22;33088;51.982;5.872;2023-02-15T07:31:03;1.60;99.90
47350;DHT22;33088;51.982;5.872;2023-02-15T07:33:33;1.60;99.90
47350;DHT22;33088;51.982;5.872;2023-02-15T07:36:01;1.70;99.90
47350;DHT22;33088;51.982;5.872;2023-02-15T07:38:30;1.70;99.90
47350;DHT22;33088;51.982;5.872;2023-02-15T07:41:01;1.70;99.90
47350;DHT22;33088;51.982;5.872;2023-02-15T07:43:28;1.70;99.90
47350;DHT22;33088;51.982;5.872;2023-02-15T07:45:58;1.70;99.90
47350;DHT22;33088;51.982;5.872;2023-02-15T07:48:24;1.80;99.90
47350;DHT22;33088;51.982;5.872;2023-02-15T07:50:49;1.80;99.90
47350;DHT22;33088;51.982;5.872;2023-02-15T07:53:15;1.80;99.90
47350;DHT22;33088;51.982;5.872;2023-02-15T07:55:41;2.00;99.90
47350;DHT22;33088;51.982;5.872;2023-02-15T07:58:06;1.90;99.90
47350;DHT22;33088;51.982;5.872;2023-02-15T08:00:32;1.90;99.90
47350;DHT22;33088;51.982;5.872;2023-02-15T08:03:18;1.90;99.90
47350;DHT22;33088;51.982;5.872;2023-02-15T08:05:44;2.00;99.90
47350;DHT22;33088;51.982;5.872;2023-02-15T08:08:11;2.00;99.90
47350;DHT22;33088;51.982;5.872;2023-02-15T08:11:15;2.10;99.90
47350;DHT22;33088;51.982;5.872;2023-02-15T08:18:54;2.30;99.90
47350;DHT22;33088;51.982;5.872;2023-02-15T08:21:21;2.40;99.90
47350;DHT22;33088;51.982;5.872;2023-02-15T08:23:47;2.40;99.90
47350;DHT22;33088;51.982;5.872;2023-02-15T08:26:13;2.40;99.90
47350;DHT22;33088;51.982;5.872;2023-02-15T08:28:40;2.40;99.90
47350;DHT22;33088;51.982;5.872;2023-02-15T08:31:11;2.40;99.90
47350;DHT22;33088;51.982;5.872;2023-02-15T08:33:38;2.50;99.90
47350;DHT22;33088;51.982;5.872;2023-02-15T08:36:07;2.50;99.90
47350;DHT22;33088;51.982;5.872;2023-02-15T08:38:33;2.60;99.90
47350;DHT22;33088;51.982;5.872;2023-02-15T08:41:16;2.60;99.90
47350;DHT22;33088;51.982;5.872;2023-02-15T08:43:43;2.70;99.90
47350;DHT22;33088;51.982;5.872;2023-02-15T08:46:10;2.70;99.90
47350;DHT22;33088;51.982;5.872;2023-02-15T08:48:35;2.80;99.90
47350;DHT22;33088;51.982;5.872;2023-02-15T08:51:10;2.80;99.90
47350;DHT22;33088;51.982;5.872;2023-02-15T08:53:37;2.90;99.90
47350;DHT22;33088;51.982;5.872;2023-02-15T08:56:04;2.90;99.90
47350;DHT22;33088;51.982;5.872;2023-02-15T08:58:29;3.00;99.90
47350;DHT22;33088;51.982;5.872;2023-02-15T09:00:56;3.10;99.90
47350;DHT22;33088;51.982;5.872;2023-02-15T09:03:22;3.10;99.90
47350;DHT22;33088;51.982;5.872;2023-02-15T09:05:48;3.20;99.90
47350;DHT22;33088;51.982;5.872;2023-02-15T09:08:15;3.30;99.90
47350;DHT22;33088;51.982;5.872;2023-02-15T09:10:41;3.40;99.90
47350;DHT22;33088;51.982;5.872;2023-02-15T09:13:07;3.50;99.90
47350;DHT22;33088;51.982;5.872;2023-02-15T09:15:33;3.70;99.90
47350;DHT22;33088;51.982;5.872;2023-02-15T09:17:58;3.60;99.90
47350;DHT22;33088;51.982;5.872;2023-02-15T09:20:27;3.70;99.90
47350;DHT22;33088;51.982;5.872;2023-02-15T09:22:53;3.90;99.90
47350;DHT22;33088;51.982;5.872;2023-02-15T09:25:21;3.90;99.90
47350;DHT22;33088;51.982;5.872;2023-02-15T09:27:47;3.90;99.90
47350;DHT22;33088;51.982;5.872;2023-02-15T09:30:13;4.00;99.90
47350;DHT22;33088;51.982;5.872;2023-02-15T09:32:39;4.10;99.90
47350;DHT22;33088;51.982;5.872;2023-02-15T09:35:04;4.10;99.90
47350;DHT22;33088;51.982;5.872;2023-02-15T09:37:33;4.20;99.90
47350;DHT22;33088;51.982;5.872;2023-02-15T09:39:59;4.10;99.90
47350;DHT22;33088;51.982;5.872;2023-02-15T09:45:38;4.30;99.90
47350;DHT22;33088;51.982;5.872;2023-02-15T09:48:29;4.40;99.90
47350;DHT22;33088;51.982;5.872;2023-02-15T09:51:19;4.50;99.90
47350;DHT22;33088;51.982;5.872;2023-02-15T09:56:31;4.60;99.90
47350;DHT22;33088;51.982;5.872;2023-02-15T10:02:47;4.80;99.90
47350;DHT22;33088;51.982;5.872;2023-02-15T10:08:31;5.00;99.90
47350;DHT22;33088;51.982;5.872;2023-02-15T10:11:32;5.10;99.90
47350;DHT22;33088;51.982;5.872;2023-02-15T10:16:41;5.20;99.90
47350;DHT22;33088;51.982;5.872;2023-02-15T10:24:28;5.60;99.90
47350;DHT22;33088;51.982;5.872;2023-02-15T10:27:08;5.70;99.90
47350;DHT22;33088;51.982;5.872;2023-02-15T10:29:43;5.80;99.90
47350;DHT22;33088;51.982;5.872;2023-02-15T10:35:00;5.90;99.90
47350;DHT22;33088;51.982;5.872;2023-02-15T10:40:28;6.10;99.90
47350;DHT22;33088;51.982;5.872;2023-02-15T10:49:16;6.50;99.90
47350;DHT22;33088;51.982;5.872;2023-02-15T10:54:22;6.70;99.90
47350;DHT22;33088;51.982;5.872;2023-02-15T10:57:06;6.80;99.90
47350;DHT22;33088;51.982;5.872;2023-02-15T10:59:56;6.90;99.90
47350;DHT22;33088;51.982;5.872;2023-02-15T11:08:24;7.10;99.90
47350;DHT22;33088;51.982;5.872;2023-02-15T11:10:54;7.20;99.90
47350;DHT22;33088;51.982;5.872;2023-02-15T11:13:24;7.30;99.90
47350;DHT22;33088;51.982;5.872;2023-02-15T11:16:06;7.50;99.90
47350;DHT22;33088;51.982;5.872;2023-02-15T11:18:40;7.60;99.90
47350;DHT22;33088;51.982;5.872;2023-02-15T11:21:24;7.70;99.90
47350;DHT22;33088;51.982;5.872;2023-02-15T11:23:51;7.80;99.90
47350;DHT22;33088;51.982;5.872;2023-02-15T11:27:00;8.00;99.90
47350;DHT22;33088;51.982;5.872;2023-02-15T11:29:14;8.00;99.90
47350;DHT22;33088;51.982;5.872;2023-02-15T11:31:55;8.30;99.90
47350;DHT22;33088;51.982;5.872;2023-02-15T11:34:36;8.30;99.90
47350;DHT22;33088;51.982;5.872;2023-02-15T11:37:10;8.40;99.90
47350;DHT22;33088;51.982;5.872;2023-02-15T11:39:37;8.40;99.90
47350;DHT22;33088;51.982;5.872;2023-02-15T11:42:14;8.50;99.90
47350;DHT22;33088;51.982;5.872;2023-02-15T11:47:19;8.70;99.90
47350;DHT22;33088;51.982;5.872;2023-02-15T11:49:45;8.70;99.90
47350;DHT22;33088;51.982;5.872;2023-02-15T11:52:14;8.80;99.90
47350;DHT22;33088;51.982;5.872;2023-02-15T11:54:46;8.80;99.90
47350;DHT22;33088;51.982;5.872;2023-02-15T11:57:20;8.90;99.90
47350;DHT22;33088;51.982;5.872;2023-02-15T12:00:16;8.90;99.90
47350;DHT22;33088;51.982;5.872;2023-02-15T12:02:48;9.00;99.90
47350;DHT22;33088;51.982;5.872;2023-02-15T12:05:18;9.00;99.90
47350;DHT22;33088;51.982;5.872;2023-02-15T12:07:48;9.10;99.90
47350;DHT22;33088;51.982;5.872;2023-02-15T12:10:26;9.20;99.90
47350;DHT22;33088;51.982;5.872;2023-02-15T12:13:14;9.30;99.90
47350;DHT22;33088;51.982;5.872;2023-02-15T12:15:51;9.30;99.90
47350;DHT22;33088;51.982;5.872;2023-02-15T12:18:43;9.20;99.90
47350;DHT22;33088;51.982;5.872;2023-02-15T12:21:33;9.30;99.90
47350;DHT22;33088;51.982;5.872;2023-02-15T12:24:32;9.40;99.90
47350;DHT22;33088;51.982;5.872;2023-02-15T12:27:05;9.50;99.90
47350;DHT22;33088;51.982;5.872;2023-02-15T12:29:43;9.50;99.90
47350;DHT22;33088;51.982;5.872;2023-02-15T12:32:26;9.70;99.90
47350;DHT22;33088;51.982;5.872;2023-02-15T12:34:59;9.70;99.90
47350;DHT22;33088;51.982;5.872;2023-02-15T12:37:27;9.90;99.90
47350;DHT22;33088;51.982;5.872;2023-02-15T12:39:59;9.90;99.90
47350;DHT22;33088;51.982;5.872;2023-02-15T12:42:26;10.00;99.90
47350;DHT22;33088;51.982;5.872;2023-02-15T12:45:29;10.00;99.90
47350;DHT22;33088;51.982;5.872;2023-02-15T12:50:46;10.10;99.90
47350;DHT22;33088;51.982;5.872;2023-02-15T12:53:21;10.20;99.90
47350;DHT22;33088;51.982;5.872;2023-02-15T12:55:54;10.30;99.90
47350;DHT22;33088;51.982;5.872;2023-02-15T13:01:17;10.40;99.90
47350;DHT22;33088;51.982;5.872;2023-02-15T13:04:03;10.50;99.90
47350;DHT22;33088;51.982;5.872;2023-02-15T13:09:35;10.50;99.90
47350;DHT22;33088;51.982;5.872;2023-02-15T13:14:36;10.80;99.90
47350;DHT22;33088;51.982;5.872;2023-02-15T13:17:04;10.60;99.90
47350;DHT22;33088;51.982;5.872;2023-02-15T13:19:45;10.60;99.90
47350;DHT22;33088;51.982;5.872;2023-02-15T13:22:17;10.40;99.90
47350;DHT22;33088;51.982;5.872;2023-02-15T13:24:59;10.50;99.90
47350;DHT22;33088;51.982;5.872;2023-02-15T13:27:39;10.50;99.90
47350;DHT22;33088;51.982;5.872;2023-02-15T13:32:45;10.30;99.90
47350;DHT22;33088;51.982;5.872;2023-02-15T13:35:15;10.40;99.90
47350;DHT22;33088;51.982;5.872;2023-02-15T13:38:02;10.50;99.90
47350;DHT22;33088;51.982;5.872;2023-02-15T13:40:53;10.60;99.90
47350;DHT22;33088;51.982;5.872;2023-02-15T14:06:32;11.20;99.90
47350;DHT22;33088;51.982;5.872;2023-02-15T14:09:18;11.10;99.90
47350;DHT22;33088;51.982;5.872;2023-02-15T14:12:10;11.00;99.90
47350;DHT22;33088;51.982;5.872;2023-02-15T14:17:22;11.00;99.90
47350;DHT22;33088;51.982;5.872;2023-02-15T14:22:44;11.00;99.90
47350;DHT22;33088;51.982;5.872;2023-02-15T14:25:48;11.00;99.90
47350;DHT22;33088;51.982;5.872;2023-02-15T14:28:34;10.90;99.90
47350;DHT22;33088;51.982;5.872;2023-02-15T14:31:03;10.90;99.90
47350;DHT22;33088;51.982;5.872;2023-02-15T14:33:55;10.90;99.90
47350;DHT22;33088;51.982;5.872;2023-02-15T14:36:22;10.80;99.90
47350;DHT22;33088;51.982;5.872;2023-02-15T14:42:11;10.80;99.90
47350;DHT22;33088;51.982;5.872;2023-02-15T14:44:55;10.90;99.90
47350;DHT22;33088;51.982;5.872;2023-02-15T14:47:37;10.90;99.90
47350;DHT22;33088;51.982;5.872;2023-02-15T14:59:00;11.00;99.90
47350;DHT22;33088;51.982;5.872;2023-02-15T15:01:34;10.90;99.90
47350;DHT22;33088;51.982;5.872;2023-02-15T15:04:10;10.80;99.90
47350;DHT22;33088;51.982;5.872;2023-02-15T15:06:40;10.70;99.90
47350;DHT22;33088;51.982;5.872;2023-02-15T15:11:40;10.70;99.90
47350;DHT22;33088;51.982;5.872;2023-02-15T15:14:07;10.60;99.90
47350;DHT22;33088;51.982;5.872;2023-02-15T15:16:46;10.80;99.90
47350;DHT22;33088;51.982;5.872;2023-02-15T15:22:24;10.70;99.90
47350;DHT22;33088;51.982;5.872;2023-02-15T15:24:55;10.60;99.90
47350;DHT22;33088;51.982;5.872;2023-02-15T15:27:41;10.60;99.90
47350;DHT22;33088;51.982;5.872;2023-02-15T15:35:36;10.40;99.90
47350;DHT22;33088;51.982;5.872;2023-02-15T15:49:46;9.90;99.90
47350;DHT22;33088;51.982;5.872;2023-02-15T15:52:17;9.90;99.90
47350;DHT22;33088;51.982;5.872;2023-02-15T15:54:44;9.80;99.90
47350;DHT22;33088;51.982;5.872;2023-02-15T15:59:50;9.70;99.90
47350;DHT22;33088;51.982;5.872;2023-02-15T16:02:17;9.60;99.90
47350;DHT22;33088;51.982;5.872;2023-02-15T16:04:44;9.50;99.90
47350;DHT22;33088;51.982;5.872;2023-02-15T16:10:00;9.40;99.90
47350;DHT22;33088;51.982;5.872;2023-02-15T16:12:28;9.40;99.90
47350;DHT22;33088;51.982;5.872;2023-02-15T16:14:55;9.40;99.90
47350;DHT22;33088;51.982;5.872;2023-02-15T16:17:28;9.40;99.90
47350;DHT22;33088;51.982;5.872;2023-02-15T16:20:17;9.40;99.90
47350;DHT22;33088;51.982;5.872;2023-02-15T16:22:46;9.40;99.90
47350;DHT22;33088;51.982;5.872;2023-02-15T16:25:35;9.30;99.90
47350;DHT22;33088;51.982;5.872;2023-02-15T16:28:08;9.30;99.90
47350;DHT22;33088;51.982;5.872;2023-02-15T16:30:36;9.30;99.90
47350;DHT22;33088;51.982;5.872;2023-02-15T16:33:12;9.30;99.90
47350;DHT22;33088;51.982;5.872;2023-02-15T16:35:40;9.30;99.90
47350;DHT22;33088;51.982;5.872;2023-02-15T16:38:09;9.20;99.90
47350;DHT22;33088;51.982;5.872;2023-02-15T16:43:16;9.10;99.90
47350;DHT22;33088;51.982;5.872;2023-02-15T16:45:44;8.90;99.90
47350;DHT22;33088;51.982;5.872;2023-02-15T16:48:21;8.90;99.90
47350;DHT22;33088;51.982;5.872;2023-02-15T16:50:53;8.70;99.90
47350;DHT22;33088;51.982;5.872;2023-02-15T16:53:24;8.60;99.90
47350;DHT22;33088;51.982;5.872;2023-02-15T16:55:55;8.50;99.90
47350;DHT22;33088;51.982;5.872;2023-02-15T16:58:37;8.40;99.90
47350;DHT22;33088;51.982;5.872;2023-02-15T17:01:14;8.40;99.90
47350;DHT22;33088;51.982;5.872;2023-02-15T17:03:41;8.40;99.90
47350;DHT22;33088;51.982;5.872;2023-02-15T17:06:23;8.50;99.90
47350;DHT22;33088;51.982;5.872;2023-02-15T17:08:51;8.50;99.90
47350;DHT22;33088;51.982;5.872;2023-02-15T17:11:18;8.60;99.90
47350;DHT22;33088;51.982;5.872;2023-02-15T17:16:31;8.50;99.90
47350;DHT22;33088;51.982;5.872;2023-02-15T17:19:07;8.40;99.90
47350;DHT22;33088;51.982;5.872;2023-02-15T17:21:42;8.40;99.90
47350;DHT22;33088;51.982;5.872;2023-02-15T17:24:17;8.30;99.90
47350;DHT22;33088;51.982;5.872;2023-02-15T17:26:51;8.30;99.90
47350;DHT22;33088;51.982;5.872;2023-02-15T17:32:00;8.10;99.90
47350;DHT22;33088;51.982;5.872;2023-02-15T17:37:30;8.00;99.90
47350;DHT22;33088;51.982;5.872;2023-02-15T17:39:58;8.00;99.90
47350;DHT22;33088;51.982;5.872;2023-02-15T17:42:25;8.00;99.90
47350;DHT22;33088;51.982;5.872;2023-02-15T17:44:50;7.90;99.90
47350;DHT22;33088;51.982;5.872;2023-02-15T17:47:19;8.00;99.90
47350;DHT22;33088;51.982;5.872;2023-02-15T17:49:46;8.20;99.90
47350;DHT22;33088;51.982;5.872;2023-02-15T17:52:16;8.10;99.90
47350;DHT22;33088;51.982;5.872;2023-02-15T17:54:45;8.00;99.90
47350;DHT22;33088;51.982;5.872;2023-02-15T17:57:30;8.00;99.90
47350;DHT22;33088;51.982;5.872;2023-02-15T17:59:56;7.90;99.90
47350;DHT22;33088;51.982;5.872;2023-02-15T18:02:41;7.90;99.90
47350;DHT22;33088;51.982;5.872;2023-02-15T18:05:26;7.90;99.90
47350;DHT22;33088;51.982;5.872;2023-02-15T18:08:18;7.90;99.90
47350;DHT22;33088;51.982;5.872;2023-02-15T18:11:03;7.90;99.90
47350;DHT22;33088;51.982;5.872;2023-02-15T18:13:48;7.90;99.90
47350;DHT22;33088;51.982;5.872;2023-02-15T18:16:21;7.80;99.90
47350;DHT22;33088;51.982;5.872;2023-02-15T18:18:47;7.80;99.90
47350;DHT22;33088;51.982;5.872;2023-02-15T18:21:13;7.70;99.90
47350;DHT22;33088;51.982;5.872;2023-02-15T18:23:39;7.90;99.90
47350;DHT22;33088;51.982;5.872;2023-02-15T18:26:05;7.60;99.90
47350;DHT22;33088;51.982;5.872;2023-02-15T18:28:32;7.60;99.90
47350;DHT22;33088;51.982;5.872;2023-02-15T18:30:59;7.50;99.90
47350;DHT22;33088;51.982;5.872;2023-02-15T18:33:33;7.40;99.90
47350;DHT22;33088;51.982;5.872;2023-02-15T18:36:03;7.30;99.90
47350;DHT22;33088;51.982;5.872;2023-02-15T18:38:30;7.20;99.90
47350;DHT22;33088;51.982;5.872;2023-02-15T18:40:56;7.20;99.90
47350;DHT22;33088;51.982;5.872;2023-02-15T18:43:22;7.20;99.90
47350;DHT22;33088;51.982;5.872;2023-02-15T18:45:47;7.20;99.90
47350;DHT22;33088;51.982;5.872;2023-02-15T18:48:13;7.10;99.90
47350;DHT22;33088;51.982;5.872;2023-02-15T18:50:40;7.10;99.90